createdAt,value
2022-11-16T00:01:35.727Z,4.60
2022-11-16T00:04:03.552Z,4.60
2022-11-16T00:06:30.716Z,4.60
2022-11-16T00:09:21.029Z,4.60
2022-11-16T00:11:53.290Z,4.60
2022-11-16T00:14:22.018Z,4.60
2022-11-16T00:16:48.838Z,4.60
2022-11-16T00:19:15.700Z,4.50
2022-11-16T00:21:43.018Z,4.60
2022-11-16T00:24:13.553Z,4.60
2022-11-16T00:26:40.769Z,4.60
2022-11-16T00:29:12.307Z,4.60
2022-11-16T00:31:39.124Z,4.60
2022-11-16T00:34:05.905Z,4.50
2022-11-16T00:36:32.719Z,4.60
2022-11-16T00:38:59.518Z,4.60
2022-11-16T00:41:26.360Z,4.60
2022-11-16T00:43:53.172Z,4.60
2022-11-16T00:46:20.021Z,4.70
2022-11-16T00:48:47.314Z,4.70
2022-11-16T00:51:14.094Z,4.80
2022-11-16T00:53:40.989Z,4.80
2022-11-16T00:56:08.054Z,4.80
2022-11-16T00:58:35.084Z,4.80
2022-11-16T01:01:07.278Z,4.70
2022-11-16T01:03:35.362Z,4.70
2022-11-16T01:06:04.185Z,4.70
2022-11-16T01:08:31.541Z,4.70
2022-11-16T01:11:19.183Z,4.70
2022-11-16T01:13:46.087Z,4.80
2022-11-16T01:16:17.215Z,4.80
2022-11-16T01:18:47.855Z,4.80
2022-11-16T01:21:14.723Z,4.80
2022-11-16T01:23:41.569Z,4.80
2022-11-16T01:26:08.411Z,4.80
2022-11-16T01:28:35.707Z,4.90
2022-11-16T01:31:03.159Z,4.90
2022-11-16T01:33:30.552Z,4.90
2022-11-16T01:35:57.376Z,4.90
2022-11-16T01:38:28.550Z,4.90
2022-11-16T01:40:56.742Z,4.90
2022-11-16T01:43:25.532Z,5.00
2022-11-16T01:45:52.732Z,5.00
2022-11-16T01:48:27.404Z,5.00
2022-11-16T01:50:56.416Z,5.00
2022-11-16T01:53:24.848Z,5.00
2022-11-16T01:55:52.284Z,5.00
2022-11-16T01:58:23.183Z,5.00
2022-11-16T02:00:50.360Z,5.00
2022-11-16T02:03:21.511Z,5.00
2022-11-16T02:06:07.713Z,5.00
2022-11-16T02:09:06.969Z,5.00
2022-11-16T02:11:51.560Z,5.00
2022-11-16T02:14:34.725Z,4.90
2022-11-16T02:17:15.356Z,5.00
2022-11-16T02:20:00.503Z,5.00
2022-11-16T02:22:53.147Z,5.00
2022-11-16T02:25:41.620Z,5.00
2022-11-16T02:28:36.116Z,5.00
2022-11-16T02:31:06.278Z,5.00
2022-11-16T02:33:40.808Z,5.00
2022-11-16T02:36:12.121Z,5.00
2022-11-16T02:38:42.720Z,5.00
2022-11-16T02:41:17.495Z,5.10
2022-11-16T02:43:50.665Z,5.10
2022-11-16T02:46:23.144Z,5.00
2022-11-16T02:48:54.890Z,5.10
2022-11-16T02:51:24.419Z,5.00
2022-11-16T02:54:04.028Z,5.00
2022-11-16T02:56:41.043Z,5.10
2022-11-16T02:59:12.137Z,5.10
2022-11-16T03:02:18.840Z,5.10
2022-11-16T03:05:15.448Z,5.10
2022-11-16T03:07:53.740Z,5.00
2022-11-16T03:10:40.294Z,5.00
2022-11-16T03:13:10.608Z,5.00
2022-11-16T03:15:39.625Z,5.10
2022-11-16T03:18:08.912Z,5.00
2022-11-16T03:20:38.862Z,5.00
2022-11-16T03:23:12.331Z,5.10
2022-11-16T03:25:49.291Z,5.00
2022-11-16T03:28:27.523Z,5.00
2022-11-16T03:31:08.951Z,5.00
2022-11-16T03:33:50.173Z,5.00
2022-11-16T03:36:31.359Z,5.10
2022-11-16T03:39:10.755Z,5.10
2022-11-16T03:41:40.917Z,5.10
2022-11-16T03:44:10.578Z,5.10
2022-11-16T03:46:37.725Z,5.10
2022-11-16T03:49:05.899Z,5.20
2022-11-16T03:51:33.000Z,5.20
2022-11-16T03:53:59.890Z,5.20
2022-11-16T03:56:26.847Z,5.20
2022-11-16T03:58:53.775Z,5.20
2022-11-16T04:01:20.640Z,5.20
2022-11-16T04:03:47.553Z,5.20
2022-11-16T04:06:33.264Z,5.30
2022-11-16T04:09:18.737Z,5.30
2022-11-16T04:12:04.414Z,5.30
2022-11-16T04:14:50.598Z,5.30
2022-11-16T04:17:37.637Z,5.30
2022-11-16T04:20:24.232Z,5.30
2022-11-16T04:23:15.757Z,5.30
2022-11-16T04:25:44.394Z,5.30
2022-11-16T04:28:14.250Z,5.30
2022-11-16T04:31:01.548Z,5.30
2022-11-16T04:33:48.648Z,5.30
2022-11-16T04:36:34.183Z,5.30
2022-11-16T04:39:01.021Z,5.30
2022-11-16T04:41:48.419Z,5.30
2022-11-16T04:44:15.352Z,5.30
2022-11-16T04:47:00.976Z,5.30
2022-11-16T04:49:27.912Z,5.40
2022-11-16T04:51:54.834Z,5.40
2022-11-16T04:54:21.710Z,5.40
2022-11-16T04:56:48.576Z,5.40
2022-11-16T04:59:15.429Z,5.40
2022-11-16T05:02:00.627Z,5.40
2022-11-16T05:04:27.408Z,5.30
2022-11-16T05:06:54.304Z,5.30
2022-11-16T05:09:21.202Z,5.30
2022-11-16T05:11:48.073Z,5.30
2022-11-16T05:14:14.956Z,5.40
2022-11-16T05:16:41.823Z,5.40
2022-11-16T05:19:27.426Z,5.50
2022-11-16T05:21:54.280Z,5.50
2022-11-16T05:24:36.143Z,5.50
2022-11-16T05:27:06.190Z,5.50
2022-11-16T05:29:33.691Z,5.50
2022-11-16T05:32:01.136Z,5.50
2022-11-16T05:34:28.121Z,5.50
2022-11-16T05:36:55.170Z,5.40
2022-11-16T05:39:22.080Z,5.40
2022-11-16T05:41:49.486Z,5.40
2022-11-16T05:44:16.678Z,5.40
2022-11-16T05:46:44.599Z,5.40
2022-11-16T05:49:12.464Z,5.50
2022-11-16T05:51:42.602Z,5.40
2022-11-16T05:54:11.846Z,5.50
2022-11-16T05:56:38.773Z,5.50
2022-11-16T05:59:06.418Z,5.40
2022-11-16T06:01:33.177Z,5.40
2022-11-16T06:04:01.592Z,5.40
2022-11-16T06:06:29.131Z,5.40
2022-11-16T06:08:56.237Z,5.40
2022-11-16T06:11:23.112Z,5.40
2022-11-16T06:13:50.206Z,5.70
2022-11-16T06:16:17.413Z,5.80
2022-11-16T06:18:46.108Z,5.60
2022-11-16T06:21:14.640Z,5.60
2022-11-16T06:23:41.525Z,5.60
2022-11-16T06:26:08.938Z,5.60
2022-11-16T06:28:36.838Z,5.50
2022-11-16T06:31:03.963Z,5.50
2022-11-16T06:33:33.542Z,5.50
2022-11-16T06:36:00.890Z,5.60
2022-11-16T06:38:28.141Z,5.60
2022-11-16T06:40:57.932Z,5.70
2022-11-16T06:43:26.240Z,5.60
2022-11-16T06:45:56.021Z,5.50
2022-11-16T06:48:23.020Z,5.50
2022-11-16T06:50:51.936Z,5.50
2022-11-16T06:53:19.464Z,5.60
2022-11-16T06:55:46.697Z,5.50
2022-11-16T06:58:13.506Z,5.50
2022-11-16T07:00:40.588Z,5.50
2022-11-16T07:03:07.370Z,5.50
2022-11-16T07:05:34.273Z,5.50
2022-11-16T07:08:01.163Z,5.50
2022-11-16T07:10:27.925Z,5.40
2022-11-16T07:12:54.773Z,5.50
2022-11-16T07:15:21.976Z,5.40
2022-11-16T07:17:48.805Z,5.40
2022-11-16T07:20:15.937Z,5.50
2022-11-16T07:22:42.792Z,5.50
2022-11-16T07:25:09.968Z,5.50
2022-11-16T07:27:36.769Z,5.50
2022-11-16T07:30:04.132Z,5.50
2022-11-16T07:32:31.164Z,5.50
2022-11-16T07:34:59.466Z,5.50
2022-11-16T07:37:26.998Z,5.60
2022-11-16T07:39:53.854Z,5.60
2022-11-16T07:42:20.659Z,5.60
2022-11-16T07:44:47.468Z,5.60
2022-11-16T07:47:14.276Z,5.60
2022-11-16T07:49:41.123Z,5.60
2022-11-16T07:52:10.933Z,5.70
2022-11-16T07:54:37.786Z,5.50
2022-11-16T07:57:04.565Z,5.50
2022-11-16T07:59:31.399Z,5.50
2022-11-16T08:01:59.306Z,5.50
2022-11-16T08:04:26.268Z,5.60
2022-11-16T08:06:53.181Z,5.60
2022-11-16T08:09:20.123Z,5.50
2022-11-16T08:11:47.302Z,5.50
2022-11-16T08:14:15.405Z,5.50
2022-11-16T08:16:42.288Z,5.50
2022-11-16T08:19:09.297Z,5.50
2022-11-16T08:21:36.065Z,5.50
2022-11-16T08:24:03.305Z,5.50
2022-11-16T08:26:31.286Z,5.60
2022-11-16T08:28:58.188Z,5.50
2022-11-16T08:31:28.063Z,5.50
2022-11-16T08:33:55.590Z,5.50
2022-11-16T08:36:22.594Z,5.50
2022-11-16T08:38:51.007Z,5.40
2022-11-16T08:41:18.937Z,5.50
2022-11-16T08:43:50.829Z,5.50
2022-11-16T08:46:17.916Z,5.50
2022-11-16T08:48:46.022Z,5.50
2022-11-16T08:51:17.825Z,5.50
2022-11-16T08:53:45.435Z,5.60
2022-11-16T08:56:13.695Z,5.50
2022-11-16T08:58:47.104Z,5.50
2022-11-16T09:01:19.343Z,5.60
2022-11-16T09:03:46.796Z,5.60
2022-11-16T09:06:14.655Z,5.50
2022-11-16T09:08:43.114Z,5.50
2022-11-16T09:11:13.076Z,5.50
2022-11-16T09:13:39.934Z,5.60
2022-11-16T09:16:07.030Z,5.60
2022-11-16T09:18:34.735Z,5.80
2022-11-16T09:21:01.976Z,5.80
2022-11-16T09:23:28.819Z,5.80
2022-11-16T09:25:55.710Z,5.80
2022-11-16T09:28:22.686Z,5.80
2022-11-16T09:30:51.701Z,5.80
2022-11-16T09:33:18.782Z,5.80
2022-11-16T09:35:47.084Z,5.70
2022-11-16T09:38:20.730Z,5.70
2022-11-16T09:40:53.751Z,5.80
2022-11-16T09:43:26.677Z,5.80
2022-11-16T09:45:58.870Z,5.80
2022-11-16T09:48:26.177Z,5.70
2022-11-16T09:50:59.214Z,5.80
2022-11-16T09:53:29.104Z,5.80
2022-11-16T09:56:22.067Z,5.80
2022-11-16T09:59:05.187Z,5.90
2022-11-16T10:01:50.191Z,6.00
2022-11-16T10:04:38.492Z,6.00
2022-11-16T10:07:15.605Z,6.00
2022-11-16T10:09:46.793Z,6.10
2022-11-16T10:12:29.193Z,6.10
2022-11-16T10:15:32.671Z,6.00
2022-11-16T10:18:02.199Z,5.90
2022-11-16T10:20:44.304Z,6.00
2022-11-16T10:23:38.999Z,5.90
2022-11-16T10:26:29.229Z,6.00
2022-11-16T10:29:30.442Z,6.00
2022-11-16T10:32:06.174Z,6.00
2022-11-16T10:34:59.926Z,6.20
2022-11-16T10:37:31.558Z,6.20
2022-11-16T10:39:59.021Z,6.20
2022-11-16T10:42:39.230Z,6.30
2022-11-16T10:45:11.918Z,6.40
2022-11-16T10:48:08.077Z,6.50
2022-11-16T10:50:40.987Z,6.40
2022-11-16T10:53:13.255Z,6.40
2022-11-16T10:55:40.032Z,6.50
2022-11-16T10:58:06.907Z,6.60
2022-11-16T11:00:38.684Z,6.60
2022-11-16T11:03:05.783Z,6.70
2022-11-16T11:05:34.645Z,6.80
2022-11-16T11:08:10.739Z,6.80
2022-11-16T11:10:42.542Z,6.80
2022-11-16T11:13:12.161Z,6.70
2022-11-16T11:15:42.527Z,6.80
2022-11-16T11:18:24.153Z,6.90
2022-11-16T11:21:22.904Z,6.90
2022-11-16T11:23:52.917Z,6.90
2022-11-16T11:26:37.095Z,6.90
2022-11-16T11:29:30.232Z,6.90
2022-11-16T11:32:13.020Z,6.80
2022-11-16T11:34:43.481Z,6.80
2022-11-16T11:37:34.048Z,6.90
2022-11-16T11:40:27.379Z,6.90
2022-11-16T11:43:00.119Z,6.80
2022-11-16T11:45:40.173Z,6.80
2022-11-16T11:48:27.322Z,6.90
2022-11-16T11:50:55.449Z,6.80
2022-11-16T11:53:40.769Z,6.80
2022-11-16T11:56:11.762Z,6.80
2022-11-16T11:58:40.718Z,6.90
2022-11-16T12:01:28.698Z,6.90
2022-11-16T12:04:37.202Z,7.00
2022-11-16T12:07:12.664Z,7.10
2022-11-16T12:10:06.332Z,7.10
2022-11-16T12:12:45.514Z,7.00
2022-11-16T12:15:31.356Z,7.10
2022-11-16T12:18:07.743Z,7.10
2022-11-16T12:20:38.922Z,7.10
2022-11-16T12:23:24.065Z,7.10
2022-11-16T12:26:06.585Z,7.10
2022-11-16T12:29:00.340Z,7.10
2022-11-16T12:31:57.573Z,7.20
2022-11-16T12:34:41.128Z,7.30
2022-11-16T12:37:13.655Z,7.30
2022-11-16T12:39:49.456Z,7.00
2022-11-16T12:42:38.001Z,7.40
2022-11-16T12:45:17.539Z,7.40
2022-11-16T12:47:58.410Z,7.50
2022-11-16T12:50:49.482Z,7.40
2022-11-16T12:53:50.998Z,7.50
2022-11-16T12:56:44.609Z,7.50
2022-11-16T12:59:24.239Z,7.50
2022-11-16T13:02:35.594Z,7.50
2022-11-16T13:05:14.424Z,7.60
2022-11-16T13:07:49.442Z,7.60
2022-11-16T13:10:18.050Z,7.60
2022-11-16T13:12:48.742Z,7.60
2022-11-16T13:15:20.463Z,7.70
2022-11-16T13:18:00.319Z,7.60
2022-11-16T13:20:33.407Z,7.70
2022-11-16T13:23:37.524Z,7.70
2022-11-16T13:26:19.405Z,7.70
2022-11-16T13:29:16.825Z,7.70
2022-11-16T13:32:02.825Z,7.70
2022-11-16T13:34:32.918Z,7.80
2022-11-16T13:36:59.869Z,7.80
2022-11-16T13:40:02.340Z,7.90
2022-11-16T13:42:31.976Z,7.90
2022-11-16T13:45:22.151Z,7.90
2022-11-16T13:47:56.892Z,8.00
2022-11-16T13:50:39.991Z,8.10
2022-11-16T13:54:10.951Z,8.10
2022-11-16T13:56:02.620Z,8.20
2022-11-16T13:58:31.587Z,8.40
2022-11-16T14:01:07.464Z,8.30
2022-11-16T14:03:38.594Z,8.40
2022-11-16T14:06:27.170Z,8.50
2022-11-16T14:08:58.131Z,8.50
2022-11-16T14:11:37.766Z,8.50
2022-11-16T14:14:09.645Z,8.50
2022-11-16T14:16:50.759Z,8.50
2022-11-16T14:19:47.552Z,8.50
2022-11-16T14:22:39.771Z,8.50
2022-11-16T14:25:29.132Z,8.60
2022-11-16T14:28:01.965Z,8.50
2022-11-16T14:30:48.006Z,8.60
2022-11-16T14:33:27.968Z,8.50
2022-11-16T14:35:54.848Z,8.50
2022-11-16T14:38:41.624Z,8.50
2022-11-16T14:41:23.108Z,8.60
2022-11-16T14:43:54.199Z,8.50
2022-11-16T14:46:32.971Z,8.50
2022-11-16T14:49:01.732Z,8.60
2022-11-16T14:51:37.836Z,8.60
2022-11-16T14:54:45.321Z,8.60
2022-11-16T14:57:21.029Z,8.80
2022-11-16T14:59:48.200Z,8.90
2022-11-16T15:02:26.648Z,8.60
2022-11-16T15:04:53.935Z,8.60
2022-11-16T15:07:23.554Z,8.60
2022-11-16T15:09:53.433Z,8.60
2022-11-16T15:12:42.946Z,8.60
2022-11-16T15:15:16.927Z,8.60
2022-11-16T15:18:00.391Z,8.60
2022-11-16T15:20:29.535Z,8.50
2022-11-16T15:23:00.730Z,8.50
2022-11-16T15:25:35.477Z,8.50
2022-11-16T15:28:05.333Z,8.50
2022-11-16T15:30:34.873Z,8.40
2022-11-16T15:33:10.954Z,8.20
2022-11-16T15:35:38.312Z,8.40
2022-11-16T15:38:14.576Z,8.30
2022-11-16T15:40:53.849Z,8.30
2022-11-16T15:43:24.001Z,8.30
2022-11-16T15:45:51.557Z,8.30
2022-11-16T15:48:24.245Z,8.30
2022-11-16T15:51:12.206Z,8.40
2022-11-16T15:53:45.838Z,8.40
2022-11-16T15:56:32.924Z,8.40
2022-11-16T15:59:09.344Z,8.40
2022-11-16T16:01:45.019Z,8.50
2022-11-16T16:04:17.441Z,8.40
2022-11-16T16:06:51.793Z,8.50
2022-11-16T16:09:36.870Z,8.40
2022-11-16T16:12:20.800Z,8.40
2022-11-16T16:14:49.471Z,8.40
2022-11-16T16:17:26.179Z,8.30
2022-11-16T16:19:59.326Z,8.30
2022-11-16T16:22:33.201Z,8.30
2022-11-16T16:25:01.572Z,8.30
2022-11-16T16:27:29.973Z,8.30
2022-11-16T16:29:58.777Z,8.30
2022-11-16T16:32:34.124Z,8.30
2022-11-16T16:35:03.782Z,8.20
2022-11-16T16:37:33.304Z,8.30
2022-11-16T16:40:00.484Z,8.30
2022-11-16T16:42:27.747Z,8.30
2022-11-16T16:44:54.641Z,8.30
2022-11-16T16:47:21.505Z,8.20
2022-11-16T16:49:51.213Z,8.20
2022-11-16T16:52:18.439Z,8.20
2022-11-16T16:54:45.268Z,8.40
2022-11-16T16:57:16.786Z,8.30
2022-11-16T16:59:48.520Z,8.30
2022-11-16T17:02:16.703Z,8.50
2022-11-16T17:04:44.076Z,8.40
2022-11-16T17:07:10.938Z,8.30
2022-11-16T17:09:38.010Z,8.40
2022-11-16T17:12:05.231Z,8.60
2022-11-16T17:14:32.082Z,8.50
2022-11-16T17:17:01.409Z,8.40
2022-11-16T17:19:29.252Z,8.60
2022-11-16T17:21:56.125Z,8.50
2022-11-16T17:24:22.965Z,8.40
2022-11-16T17:26:50.578Z,8.30
2022-11-16T17:29:17.516Z,8.30
2022-11-16T17:31:47.226Z,8.30
2022-11-16T17:34:20.117Z,8.30
2022-11-16T17:36:46.955Z,8.20
2022-11-16T17:39:13.945Z,8.10
2022-11-16T17:41:40.792Z,8.10
2022-11-16T17:44:07.972Z,8.10
2022-11-16T17:46:35.452Z,8.10
2022-11-16T17:49:02.409Z,8.10
2022-11-16T17:51:32.365Z,8.00
2022-11-16T17:53:59.259Z,8.00
2022-11-16T17:56:27.670Z,8.00
2022-11-16T17:58:58.558Z,8.00
2022-11-16T18:01:26.070Z,8.00
2022-11-16T18:03:52.943Z,7.90
2022-11-16T18:06:25.120Z,8.00
2022-11-16T18:08:54.035Z,8.10
2022-11-16T18:11:23.611Z,8.00
2022-11-16T18:13:58.712Z,8.30
2022-11-16T18:16:28.012Z,8.20
2022-11-16T18:19:00.217Z,8.10
2022-11-16T18:21:27.407Z,8.00
2022-11-16T18:23:54.603Z,7.90
2022-11-16T18:26:23.456Z,7.80
2022-11-16T18:28:51.656Z,7.80
2022-11-16T18:31:20.947Z,7.80
2022-11-16T18:33:49.317Z,7.70
2022-11-16T18:36:17.449Z,7.70
2022-11-16T18:38:44.686Z,7.70
2022-11-16T18:41:14.407Z,7.60
2022-11-16T18:43:55.369Z,7.50
2022-11-16T18:46:27.521Z,7.50
2022-11-16T18:48:55.525Z,7.40
2022-11-16T18:51:23.868Z,7.40
2022-11-16T18:53:51.077Z,7.40
2022-11-16T18:56:18.202Z,7.40
2022-11-16T18:58:53.422Z,7.40
2022-11-16T19:01:25.872Z,7.40
2022-11-16T19:03:54.438Z,7.40
2022-11-16T19:06:22.517Z,7.30
2022-11-16T19:08:56.339Z,7.40
2022-11-16T19:11:24.322Z,7.40
2022-11-16T19:13:56.803Z,7.40
2022-11-16T19:16:24.766Z,7.40
2022-11-16T19:18:51.675Z,7.40
2022-11-16T19:21:19.215Z,7.30
2022-11-16T19:23:48.631Z,7.20
2022-11-16T19:26:18.083Z,7.20
2022-11-16T19:28:47.052Z,7.20
2022-11-16T19:31:21.558Z,7.20
2022-11-16T19:33:52.558Z,7.20
2022-11-16T19:36:22.475Z,7.20
2022-11-16T19:38:49.717Z,7.20
2022-11-16T19:41:18.141Z,7.20
2022-11-16T19:43:44.939Z,7.20
2022-11-16T19:46:21.323Z,7.30
2022-11-16T19:48:49.504Z,7.30
2022-11-16T19:51:24.840Z,7.20
2022-11-16T19:53:51.984Z,7.20
2022-11-16T19:56:20.587Z,7.20
2022-11-16T19:58:47.911Z,7.40
2022-11-16T20:01:17.132Z,7.30
2022-11-16T20:03:45.085Z,7.20
2022-11-16T20:06:17.245Z,7.20
2022-11-16T20:08:48.705Z,7.20
2022-11-16T20:11:20.592Z,7.20
2022-11-16T20:13:49.237Z,7.20
2022-11-16T20:16:17.161Z,7.30
2022-11-16T20:18:45.109Z,7.30
2022-11-16T20:21:17.727Z,7.30
2022-11-16T20:23:45.519Z,7.20
2022-11-16T20:26:14.102Z,7.20
2022-11-16T20:28:42.823Z,7.10
2022-11-16T20:31:13.630Z,7.10
2022-11-16T20:33:41.129Z,7.10
2022-11-16T20:36:11.175Z,7.10
2022-11-16T20:38:39.315Z,7.10
2022-11-16T20:41:16.458Z,7.10
2022-11-16T20:43:44.435Z,7.10
2022-11-16T20:46:13.656Z,7.10
2022-11-16T20:48:41.608Z,7.10
2022-11-16T20:51:10.561Z,7.10
2022-11-16T20:53:38.155Z,7.00
2022-11-16T20:56:07.584Z,7.10
2022-11-16T20:58:35.229Z,7.10
2022-11-16T21:01:07.761Z,7.10
2022-11-16T21:03:34.996Z,7.10
2022-11-16T21:06:02.122Z,7.20
2022-11-16T21:08:31.755Z,7.30
2022-11-16T21:10:58.766Z,7.30
2022-11-16T21:13:44.426Z,7.20
2022-11-16T21:16:13.796Z,7.10
2022-11-16T21:18:41.303Z,7.10
2022-11-16T21:21:12.238Z,7.10
2022-11-16T21:23:41.322Z,7.00
2022-11-16T21:26:11.598Z,7.00
2022-11-16T21:28:38.845Z,7.00
2022-11-16T21:31:11.480Z,7.00
2022-11-16T21:33:38.465Z,6.90
2022-11-16T21:36:11.683Z,6.90
2022-11-16T21:38:38.993Z,6.90
2022-11-16T21:41:06.790Z,6.90
2022-11-16T21:43:36.376Z,6.90
2022-11-16T21:46:05.800Z,6.90
2022-11-16T21:48:34.530Z,6.90
2022-11-16T21:51:03.140Z,7.00
2022-11-16T21:53:30.582Z,7.00
2022-11-16T21:55:58.032Z,6.90
2022-11-16T21:58:25.386Z,6.90
2022-11-16T22:00:56.427Z,6.80
2022-11-16T22:03:28.780Z,6.80
2022-11-16T22:06:16.649Z,6.80
2022-11-16T22:08:43.917Z,6.80
2022-11-16T22:11:11.879Z,6.80
2022-11-16T22:13:39.404Z,6.80
2022-11-16T22:16:06.575Z,6.80
2022-11-16T22:18:33.967Z,6.80
2022-11-16T22:21:01.217Z,6.80
2022-11-16T22:23:28.516Z,6.80
2022-11-16T22:25:59.965Z,6.80
2022-11-16T22:28:26.889Z,6.70
2022-11-16T22:31:00.674Z,6.70
2022-11-16T22:33:28.201Z,6.50
2022-11-16T22:35:55.154Z,6.50
2022-11-16T22:38:22.101Z,6.50
2022-11-16T22:40:50.789Z,6.40
2022-11-16T22:43:18.798Z,6.50
2022-11-16T22:45:46.275Z,6.60
2022-11-16T22:48:13.445Z,6.60
2022-11-16T22:50:40.340Z,6.50
2022-11-16T22:53:07.176Z,6.50
2022-11-16T22:55:38.293Z,6.60
2022-11-16T22:58:05.828Z,6.50
2022-11-16T23:00:39.011Z,6.50
2022-11-16T23:03:08.771Z,6.50
2022-11-16T23:05:35.704Z,6.50
2022-11-16T23:08:02.511Z,6.40
2022-11-16T23:10:29.387Z,6.40
2022-11-16T23:13:14.933Z,6.40
2022-11-16T23:15:50.809Z,6.50
2022-11-16T23:18:19.644Z,6.40
2022-11-16T23:21:04.864Z,6.40
2022-11-16T23:23:50.540Z,6.30
2022-11-16T23:26:42.070Z,6.40
2022-11-16T23:29:10.805Z,6.40
2022-11-16T23:31:38.222Z,6.40
2022-11-16T23:34:05.356Z,6.40
2022-11-16T23:36:32.307Z,6.30
2022-11-16T23:38:59.064Z,6.30
2022-11-16T23:41:44.529Z,6.30
2022-11-16T23:44:11.464Z,6.30
2022-11-16T23:46:38.342Z,6.30
2022-11-16T23:49:05.347Z,6.20
2022-11-16T23:51:32.211Z,6.20
2022-11-16T23:53:59.060Z,6.30
2022-11-16T23:56:27.534Z,6.30
2022-11-16T23:58:57.532Z,6.30
